LFOP/URO METAR and TAF weather

Enter ICAO airport designator
Station Type Date Time Source
LFOP METAR 2022/06/28 16:00 UTC NOAA

LFOP 281600Z AUTO 23005KT 170V290 CAVOK 24/09 Q1017 NOSIG


Station Type Date Time Source
LFOP Decoded METAR 2022/06/28 16:00 UTC NOAA

Rouen, France (LFOP) 49-23N 001-11E 157M
Jun 28, 2022 - 12:00 PM EDT / 2022.06.28 1600 UTC
Wind: from the SW (230 degrees) at 6 MPH (5 KT) (direction variable):0
Visibility: greater than 7 mile(s):0
Temperature: 75 F (24 C)
Dew Point: 48 F (9 C)
Relative Humidity: 38%
Pressure (altimeter): 30.03 in. Hg (1017 hPa)
ob: LFOP 281600Z AUTO 23005KT 170V290 CAVOK 24/09 Q1017 NOSIG
cycle: 16

Station Type Date Time Source
LFOP TAF 2022/06/28 12:44 UTC NOAA

TAF LFOP 281100Z 2812/2912 20010KT CAVOK
BECMG 2815/2818 VRB03KT

Example: see airport list